createdAt,value
2019-02-27T00:02:07.901Z,67.40
2019-02-27T00:04:39.702Z,68.92
2019-02-27T00:07:09.361Z,64.80
2019-02-27T00:09:38.865Z,63.95
2019-02-27T00:12:08.221Z,67.35
2019-02-27T00:14:37.646Z,68.15
2019-02-27T00:17:08.293Z,69.27
2019-02-27T00:19:37.796Z,72.10
2019-02-27T00:22:07.306Z,67.75
2019-02-27T00:24:36.713Z,59.38
2019-02-27T00:27:06.161Z,64.07
2019-02-27T00:29:35.673Z,63.63
2019-02-27T00:32:05.515Z,57.45
2019-02-27T00:34:34.965Z,63.30
2019-02-27T00:37:04.324Z,69.92
2019-02-27T00:39:33.827Z,62.38
2019-02-27T00:42:03.210Z,63.55
2019-02-27T00:44:34.739Z,62.73
2019-02-27T00:47:04.288Z,59.30
2019-02-27T00:49:34.805Z,66.72
2019-02-27T00:52:04.309Z,58.90
2019-02-27T00:54:33.748Z,57.10
2019-02-27T00:57:03.227Z,52.98
2019-02-27T00:59:33.219Z,55.65
2019-02-27T01:02:03.124Z,57.53
2019-02-27T01:04:34.963Z,60.43
2019-02-27T01:07:03.621Z,52.37
2019-02-27T01:09:33.039Z,51.53
2019-02-27T01:12:02.538Z,53.78
2019-02-27T01:14:36.943Z,54.17
2019-02-27T01:17:04.177Z,55.00
2019-02-27T01:19:38.338Z,57.17
2019-02-27T01:22:05.373Z,49.65
2019-02-27T01:24:34.724Z,53.83
2019-02-27T01:27:04.625Z,61.90
2019-02-27T01:29:34.720Z,53.17
2019-02-27T01:32:04.215Z,56.90
2019-02-27T01:34:33.635Z,54.53
2019-02-27T01:37:03.013Z,49.65
2019-02-27T01:39:32.359Z,52.93
2019-02-27T01:42:01.716Z,53.83
2019-02-27T01:44:31.221Z,60.65
2019-02-27T01:47:02.284Z,54.90
2019-02-27T01:49:31.625Z,54.60
2019-02-27T01:52:02.068Z,55.38
2019-02-27T01:54:31.620Z,52.25
2019-02-27T01:57:02.931Z,52.70
2019-02-27T01:59:32.045Z,56.40
2019-02-27T02:02:03.507Z,55.88
2019-02-27T02:04:33.613Z,49.67
2019-02-27T02:07:04.076Z,55.33
2019-02-27T02:09:36.376Z,51.50
2019-02-27T02:12:18.145Z,52.48
2019-02-27T02:14:54.458Z,51.48
2019-02-27T02:17:45.126Z,55.90
2019-02-27T02:20:36.866Z,47.15
2019-02-27T02:23:15.161Z,48.85
2019-02-27T02:26:01.878Z,47.60
2019-02-27T02:28:48.229Z,44.35
2019-02-27T02:31:33.128Z,49.95
2019-02-27T02:34:27.677Z,48.75
2019-02-27T02:39:54.697Z,48.05
2019-02-27T02:42:46.241Z,49.50
2019-02-27T02:45:33.814Z,47.03
2019-02-27T02:48:21.431Z,48.98
2019-02-27T02:51:21.398Z,53.10
2019-02-27T02:54:22.543Z,48.10
2019-02-27T02:57:04.945Z,49.00
2019-02-27T02:59:49.392Z,45.30
2019-02-27T03:02:36.768Z,52.88
2019-02-27T03:08:05.432Z,50.48
2019-02-27T03:10:42.575Z,53.35
2019-02-27T03:13:14.919Z,44.98
2019-02-27T03:15:47.372Z,55.80
2019-02-27T03:18:39.278Z,46.88
2019-02-27T03:21:33.028Z,42.60
2019-02-27T03:24:11.495Z,49.70
2019-02-27T03:26:43.934Z,41.80
2019-02-27T03:29:40.222Z,45.00
2019-02-27T03:32:21.520Z,43.10
2019-02-27T03:35:11.872Z,41.23
2019-02-27T03:37:49.907Z,40.85
2019-02-27T03:43:45.665Z,42.03
2019-02-27T03:46:42.627Z,41.73
2019-02-27T03:49:30.056Z,45.50
2019-02-27T03:52:20.763Z,47.08
2019-02-27T03:55:04.761Z,49.30
2019-02-27T04:00:23.895Z,47.00
2019-02-27T04:02:56.328Z,53.58
2019-02-27T04:05:57.768Z,47.45
2019-02-27T04:08:35.957Z,43.95
2019-02-27T04:13:54.439Z,47.70
2019-02-27T04:16:28.814Z,39.80
2019-02-27T04:18:55.035Z,43.95
2019-02-27T04:21:25.351Z,43.30
2019-02-27T04:23:57.120Z,40.30
2019-02-27T04:26:28.046Z,42.87
2019-02-27T04:28:57.423Z,39.63
2019-02-27T04:31:29.455Z,45.03
2019-02-27T04:34:00.350Z,38.73
2019-02-27T04:36:28.881Z,45.90
2019-02-27T04:39:00.025Z,46.80
2019-02-27T04:41:29.297Z,43.52
2019-02-27T04:43:58.649Z,43.23
2019-02-27T04:46:28.083Z,44.13
2019-02-27T04:48:57.447Z,48.63
2019-02-27T04:51:26.796Z,46.50
2019-02-27T04:53:56.148Z,40.43
2019-02-27T04:56:25.519Z,46.02
2019-02-27T04:58:54.956Z,40.67
2019-02-27T05:01:24.404Z,44.08
2019-02-27T05:03:53.860Z,48.10
2019-02-27T05:06:23.212Z,43.92
2019-02-27T05:08:52.588Z,43.38
2019-02-27T05:11:21.931Z,43.68
2019-02-27T05:13:54.040Z,43.05
2019-02-27T05:16:22.375Z,45.28
2019-02-27T05:18:51.721Z,41.83
2019-02-27T05:21:21.068Z,44.60
2019-02-27T05:23:50.427Z,44.58
2019-02-27T05:26:19.810Z,41.37
2019-02-27T05:28:49.180Z,50.73
2019-02-27T05:31:19.159Z,46.05
2019-02-27T05:33:48.588Z,44.40
2019-02-27T05:36:17.945Z,48.73
2019-02-27T05:38:47.395Z,44.08
2019-02-27T05:41:16.742Z,46.25
2019-02-27T05:43:48.460Z,45.43
2019-02-27T05:46:17.580Z,43.77
2019-02-27T05:48:46.985Z,37.65
2019-02-27T05:51:16.403Z,37.60
2019-02-27T05:53:45.786Z,46.40
2019-02-27T05:56:16.825Z,46.45
2019-02-27T05:58:46.271Z,47.80
2019-02-27T06:01:15.626Z,49.03
2019-02-27T06:03:45.008Z,46.28
2019-02-27T06:06:15.459Z,43.00
2019-02-27T06:08:44.852Z,51.08
2019-02-27T06:11:14.204Z,47.62
2019-02-27T06:13:45.015Z,42.80
2019-02-27T06:16:16.204Z,44.33
2019-02-27T06:18:45.580Z,45.67
2019-02-27T06:21:16.379Z,45.23
2019-02-27T06:23:47.114Z,46.85
2019-02-27T06:26:18.957Z,47.53
2019-02-27T06:28:48.370Z,48.85
2019-02-27T06:31:17.724Z,41.58
2019-02-27T06:33:47.082Z,40.90
2019-02-27T06:36:16.522Z,44.23
2019-02-27T06:38:45.870Z,49.27
2019-02-27T06:41:18.140Z,39.33
2019-02-27T06:43:47.502Z,50.95
2019-02-27T06:46:19.898Z,46.85
2019-02-27T06:48:48.566Z,43.50
2019-02-27T06:51:17.995Z,46.67
2019-02-27T06:53:47.368Z,47.15
2019-02-27T06:56:16.764Z,45.15
2019-02-27T06:58:47.605Z,50.08
2019-02-27T07:01:17.231Z,44.90
2019-02-27T07:03:46.593Z,42.43
2019-02-27T07:06:16.410Z,44.73
2019-02-27T07:08:46.173Z,48.92
2019-02-27T07:11:17.192Z,43.28
2019-02-27T07:13:46.641Z,48.00
2019-02-27T07:16:20.472Z,53.02
2019-02-27T07:18:49.357Z,51.40
2019-02-27T07:21:18.702Z,42.67
2019-02-27T07:23:48.094Z,50.43
2019-02-27T07:26:21.102Z,46.48
2019-02-27T07:28:50.448Z,47.53
2019-02-27T07:31:19.878Z,50.00
2019-02-27T07:33:51.621Z,50.83
2019-02-27T07:36:21.113Z,51.40
2019-02-27T07:38:50.541Z,44.77
2019-02-27T07:41:22.867Z,49.47
2019-02-27T07:43:52.251Z,48.78
2019-02-27T07:46:22.404Z,50.03
2019-02-27T07:48:56.390Z,57.62
2019-02-27T07:51:23.929Z,53.37
2019-02-27T07:53:54.512Z,60.83
2019-02-27T07:56:24.098Z,51.33
2019-02-27T07:58:53.485Z,64.87
2019-02-27T08:01:23.661Z,52.10
2019-02-27T08:03:53.586Z,48.90
2019-02-27T08:06:23.701Z,46.28
2019-02-27T08:08:57.003Z,45.75
2019-02-27T08:11:26.372Z,38.47
2019-02-27T08:13:55.503Z,44.53
2019-02-27T08:16:24.877Z,48.02
2019-02-27T08:18:54.256Z,43.10
2019-02-27T08:21:23.634Z,42.90
2019-02-27T08:23:53.068Z,49.40
2019-02-27T08:26:22.490Z,46.70
2019-02-27T08:28:51.855Z,41.10
2019-02-27T08:31:21.222Z,42.75
2019-02-27T08:33:52.258Z,36.83
2019-02-27T08:36:21.760Z,40.13
2019-02-27T08:38:51.091Z,38.15
2019-02-27T08:41:20.534Z,37.93
2019-02-27T08:43:49.896Z,39.70
2019-02-27T08:46:19.258Z,38.70
2019-02-27T08:48:50.183Z,34.13
2019-02-27T08:51:19.699Z,34.33
2019-02-27T08:53:49.052Z,36.10
2019-02-27T08:56:18.412Z,33.80
2019-02-27T08:58:47.793Z,34.92
2019-02-27T09:01:19.041Z,32.08
2019-02-27T09:03:48.223Z,29.77
2019-02-27T09:06:18.811Z,28.23
2019-02-27T09:08:48.173Z,30.88
2019-02-27T09:11:17.545Z,27.25
2019-02-27T09:13:46.896Z,30.48
2019-02-27T09:16:16.264Z,37.45
2019-02-27T09:18:45.638Z,28.35
2019-02-27T09:21:15.000Z,27.27
2019-02-27T09:23:44.426Z,33.25
2019-02-27T09:26:13.868Z,32.45
2019-02-27T09:28:44.546Z,43.15
2019-02-27T09:31:15.368Z,25.60
2019-02-27T09:33:45.804Z,27.60
2019-02-27T09:36:15.227Z,22.35
2019-02-27T09:38:45.228Z,26.20
2019-02-27T09:41:14.792Z,23.83
2019-02-27T09:43:44.141Z,22.75
2019-02-27T09:46:19.262Z,23.22
2019-02-27T09:48:45.881Z,19.40
2019-02-27T09:51:15.278Z,20.65
2019-02-27T09:53:44.676Z,21.57
2019-02-27T09:56:14.656Z,21.62
2019-02-27T09:58:45.525Z,20.08
2019-02-27T10:01:17.196Z,25.57
2019-02-27T10:03:46.656Z,25.52
2019-02-27T10:06:16.079Z,24.02
2019-02-27T10:08:45.536Z,25.12
2019-02-27T10:11:18.799Z,24.57
2019-02-27T10:13:46.119Z,28.13
2019-02-27T10:16:15.535Z,25.48
2019-02-27T10:18:44.896Z,26.93
2019-02-27T10:21:14.276Z,23.70
2019-02-27T10:23:43.719Z,25.72
2019-02-27T10:26:13.147Z,23.95
2019-02-27T10:28:44.033Z,22.17
2019-02-27T10:31:15.898Z,26.07
2019-02-27T10:33:45.266Z,26.35
2019-02-27T10:36:16.195Z,28.17
2019-02-27T10:38:46.840Z,25.10
2019-02-27T10:41:16.265Z,27.60
2019-02-27T10:43:45.627Z,28.15
2019-02-27T10:46:15.077Z,31.77
2019-02-27T10:48:46.920Z,35.40
2019-02-27T10:51:15.504Z,29.10
2019-02-27T10:53:44.858Z,28.05
2019-02-27T10:56:14.232Z,31.75
2019-02-27T10:58:45.023Z,25.72
2019-02-27T11:01:14.729Z,27.95
2019-02-27T11:03:44.133Z,26.12
2019-02-27T11:06:13.561Z,31.27
2019-02-27T11:08:43.239Z,29.95
2019-02-27T11:11:13.191Z,35.67
2019-02-27T11:13:43.887Z,29.60
2019-02-27T11:16:15.411Z,32.58
2019-02-27T11:18:44.442Z,32.67
2019-02-27T11:21:15.027Z,31.30
2019-02-27T11:23:44.372Z,26.68
2019-02-27T11:26:13.730Z,33.83
2019-02-27T11:28:47.566Z,28.05
2019-02-27T11:31:15.571Z,29.67
2019-02-27T11:33:45.079Z,32.23
2019-02-27T11:36:14.583Z,28.62
2019-02-27T11:38:43.966Z,34.40
2019-02-27T11:41:15.362Z,27.10
2019-02-27T11:43:44.459Z,35.77
2019-02-27T11:46:13.819Z,29.20
2019-02-27T11:48:47.501Z,29.57
2019-02-27T11:51:17.522Z,34.03
2019-02-27T11:53:48.161Z,33.17
2019-02-27T11:56:20.246Z,29.03
2019-02-27T11:58:50.095Z,30.60
2019-02-27T12:01:22.126Z,29.20
2019-02-27T12:03:52.066Z,35.23
2019-02-27T12:06:21.488Z,34.80
2019-02-27T12:08:50.946Z,30.55
2019-02-27T12:11:20.367Z,35.17
2019-02-27T12:13:50.105Z,34.75
2019-02-27T12:16:19.494Z,30.27
2019-02-27T12:18:49.008Z,35.25
2019-02-27T12:21:19.152Z,36.63
2019-02-27T12:23:48.638Z,35.63
2019-02-27T12:26:18.079Z,32.73
2019-02-27T12:28:52.644Z,38.17
2019-02-27T12:31:21.740Z,37.70
2019-02-27T12:33:51.120Z,108.37
2019-02-27T12:36:23.317Z,76.10
2019-02-27T12:38:52.733Z,35.35
2019-02-27T12:41:22.227Z,33.53
2019-02-27T12:43:52.753Z,33.50
2019-02-27T12:46:22.864Z,40.50
2019-02-27T12:48:52.249Z,36.28
2019-02-27T12:51:21.609Z,29.70
2019-02-27T12:53:54.408Z,33.13
2019-02-27T12:56:22.097Z,37.47
2019-02-27T12:58:51.467Z,37.83
2019-02-27T13:01:20.933Z,41.18
2019-02-27T13:03:50.434Z,38.02
2019-02-27T13:06:19.842Z,47.50
2019-02-27T13:08:52.609Z,35.50
2019-02-27T13:11:20.345Z,38.77
2019-02-27T13:13:49.853Z,36.53
2019-02-27T13:16:19.264Z,33.08
2019-02-27T13:18:48.784Z,32.10
2019-02-27T13:21:20.696Z,36.58
2019-02-27T13:23:49.245Z,36.03
2019-02-27T13:26:18.618Z,42.95
2019-02-27T13:28:49.708Z,41.10
2019-02-27T13:31:19.254Z,37.67
2019-02-27T13:33:48.692Z,37.93
2019-02-27T13:36:18.182Z,40.63
2019-02-27T13:38:49.557Z,37.00
2019-02-27T13:41:18.740Z,38.55
2019-02-27T13:43:48.135Z,37.33
2019-02-27T13:46:17.496Z,38.13
2019-02-27T13:48:46.944Z,35.90
2019-02-27T13:51:16.301Z,39.57
2019-02-27T13:53:45.659Z,36.25
2019-02-27T13:56:16.174Z,38.38
2019-02-27T13:58:45.814Z,45.78
2019-02-27T14:01:15.167Z,38.67
2019-02-27T14:03:45.676Z,48.78
2019-02-27T14:06:15.680Z,37.90
2019-02-27T14:08:45.123Z,37.17
2019-02-27T14:11:14.488Z,40.33
2019-02-27T14:13:44.959Z,40.50
2019-02-27T14:16:14.407Z,44.38
2019-02-27T14:18:44.020Z,40.30
2019-02-27T14:21:14.966Z,40.03
2019-02-27T14:23:46.911Z,41.40
2019-02-27T14:26:15.704Z,49.23
2019-02-27T14:28:45.201Z,41.05
2019-02-27T14:31:14.563Z,41.63
2019-02-27T14:33:44.087Z,44.35
2019-02-27T14:36:13.512Z,40.03
2019-02-27T14:38:42.867Z,41.20
2019-02-27T14:41:14.354Z,43.10
2019-02-27T14:43:43.315Z,42.33
2019-02-27T14:46:12.865Z,43.90
2019-02-27T14:48:42.341Z,36.85
2019-02-27T14:51:11.838Z,45.65
2019-02-27T14:53:41.190Z,34.88
2019-02-27T14:56:10.637Z,36.22
2019-02-27T14:58:40.066Z,38.92
2019-02-27T15:01:11.833Z,40.30
2019-02-27T15:03:42.330Z,36.13
2019-02-27T15:06:11.787Z,35.58
2019-02-27T15:08:41.246Z,40.88
2019-02-27T15:11:13.999Z,43.06
2019-02-27T15:13:41.696Z,45.60
2019-02-27T15:16:11.156Z,49.58
2019-02-27T15:18:40.690Z,50.73
2019-02-27T15:21:13.034Z,55.10
2019-02-27T15:23:41.296Z,58.93
2019-02-27T15:26:13.894Z,52.93
2019-02-27T15:28:41.928Z,54.43
2019-02-27T15:31:15.167Z,51.88
2019-02-27T15:33:44.610Z,58.65
2019-02-27T15:36:14.066Z,53.07
2019-02-27T15:38:46.162Z,53.45
2019-02-27T15:41:16.600Z,52.50
2019-02-27T15:43:54.655Z,61.80
2019-02-27T15:46:21.708Z,56.85
2019-02-27T15:48:48.472Z,54.17
2019-02-27T15:51:18.347Z,53.17
2019-02-27T15:53:49.984Z,59.83
2019-02-27T15:56:20.012Z,58.03
2019-02-27T15:58:49.493Z,58.65
2019-02-27T16:01:19.046Z,59.05
2019-02-27T16:03:48.469Z,91.22
2019-02-27T16:06:17.855Z,59.87
2019-02-27T16:08:47.231Z,58.25
2019-02-27T16:11:17.334Z,57.25
2019-02-27T16:13:46.954Z,64.05
2019-02-27T16:16:16.384Z,58.27
2019-02-27T16:18:45.749Z,61.42
2019-02-27T16:21:15.128Z,63.50
2019-02-27T16:23:44.812Z,58.98
2019-02-27T16:26:14.180Z,61.88
2019-02-27T16:28:46.083Z,61.55
2019-02-27T16:31:14.639Z,59.53
2019-02-27T16:33:44.084Z,60.55
2019-02-27T16:36:15.692Z,72.77
2019-02-27T16:38:44.529Z,60.97
2019-02-27T16:41:13.888Z,65.40
2019-02-27T16:43:47.733Z,63.38
2019-02-27T16:46:14.377Z,69.63
2019-02-27T16:48:43.737Z,71.05
2019-02-27T16:51:13.125Z,71.60
2019-02-27T16:53:42.481Z,59.45
2019-02-27T16:56:12.878Z,66.90
2019-02-27T16:58:42.399Z,65.85
2019-02-27T17:01:11.845Z,59.38
2019-02-27T17:03:41.205Z,67.80
2019-02-27T17:06:10.561Z,68.52
2019-02-27T17:08:42.938Z,67.08
2019-02-27T17:11:12.368Z,76.45
2019-02-27T17:13:41.734Z,62.50
2019-02-27T17:16:11.533Z,61.73
2019-02-27T17:18:42.038Z,67.30
2019-02-27T17:21:11.970Z,76.97
2019-02-27T17:23:45.382Z,73.37
2019-02-27T17:26:12.593Z,69.60
2019-02-27T17:28:42.029Z,64.62
2019-02-27T17:31:12.196Z,68.17
2019-02-27T17:33:42.287Z,65.87
2019-02-27T17:36:11.685Z,64.15
2019-02-27T17:38:41.138Z,66.65
2019-02-27T17:41:10.643Z,66.88
2019-02-27T17:43:40.774Z,67.40
2019-02-27T17:46:10.163Z,64.05
2019-02-27T17:48:39.797Z,63.92
2019-02-27T17:51:09.338Z,71.95
2019-02-27T17:53:38.695Z,67.95
2019-02-27T17:56:08.065Z,63.05
2019-02-27T17:58:38.028Z,63.65
2019-02-27T18:01:09.187Z,64.72
2019-02-27T18:03:41.507Z,66.77
2019-02-27T18:06:09.675Z,74.55
2019-02-27T18:08:39.135Z,72.65
2019-02-27T18:11:08.664Z,72.03
2019-02-27T18:13:38.022Z,81.08
2019-02-27T18:16:07.417Z,73.05
2019-02-27T18:18:36.876Z,77.50
2019-02-27T18:21:06.309Z,73.73
2019-02-27T18:23:35.765Z,69.35
2019-02-27T18:26:05.492Z,72.42
2019-02-27T18:28:35.925Z,70.45
2019-02-27T18:31:05.731Z,69.97
2019-02-27T18:33:35.226Z,73.37
2019-02-27T18:36:05.881Z,72.16
2019-02-27T18:38:35.575Z,79.00
2019-02-27T18:41:05.633Z,69.25
2019-02-27T18:43:35.111Z,76.35
2019-02-27T18:46:04.519Z,80.70
2019-02-27T18:48:34.750Z,68.07
2019-02-27T18:51:04.563Z,75.00
2019-02-27T18:53:34.146Z,77.00
2019-02-27T18:56:05.177Z,76.37
2019-02-27T18:58:34.605Z,79.70
2019-02-27T19:01:09.518Z,78.75
2019-02-27T19:03:37.107Z,82.42
2019-02-27T19:06:06.701Z,69.85
2019-02-27T19:08:36.136Z,76.53
2019-02-27T19:11:06.282Z,91.70
2019-02-27T19:13:36.822Z,73.75
2019-02-27T19:16:06.560Z,81.02
2019-02-27T19:18:38.498Z,80.65
2019-02-27T19:21:07.587Z,75.43
2019-02-27T19:23:37.147Z,78.20
2019-02-27T19:26:09.360Z,87.45
2019-02-27T19:28:38.717Z,81.35
2019-02-27T19:31:08.278Z,82.10
2019-02-27T19:33:37.788Z,84.65
2019-02-27T19:36:07.157Z,85.07
2019-02-27T19:38:36.559Z,83.40
2019-02-27T19:41:06.058Z,86.00
2019-02-27T19:43:35.617Z,81.55
2019-02-27T19:46:10.010Z,80.42
2019-02-27T19:48:40.010Z,78.83
2019-02-27T19:51:09.377Z,91.65
2019-02-27T19:53:39.614Z,82.27
2019-02-27T19:56:09.561Z,79.40
2019-02-27T19:58:39.088Z,84.72
2019-02-27T20:01:10.227Z,84.87
2019-02-27T20:03:39.681Z,85.37
2019-02-27T20:06:09.064Z,82.35
2019-02-27T20:08:44.347Z,87.67
2019-02-27T20:11:10.014Z,78.73
2019-02-27T20:13:39.515Z,74.87
2019-02-27T20:16:09.083Z,80.40
2019-02-27T20:18:40.582Z,84.77
2019-02-27T20:21:12.097Z,79.73
2019-02-27T20:23:41.564Z,86.47
2019-02-27T20:26:19.996Z,89.47
2019-02-27T20:28:46.982Z,87.62
2019-02-27T20:31:19.727Z,93.23
2019-02-27T20:33:49.309Z,90.10
2019-02-27T20:36:18.788Z,89.35
2019-02-27T20:38:50.735Z,93.37
2019-02-27T20:41:20.348Z,89.32
2019-02-27T20:43:49.975Z,89.97
2019-02-27T20:46:19.367Z,97.23
2019-02-27T20:48:48.727Z,97.37
2019-02-27T20:51:18.196Z,86.95
2019-02-27T20:53:47.697Z,95.57
2019-02-27T20:56:17.154Z,87.95
2019-02-27T20:58:51.113Z,83.55
2019-02-27T21:01:17.770Z,91.13
2019-02-27T21:03:47.305Z,92.80
2019-02-27T21:06:16.707Z,81.10
2019-02-27T21:08:46.075Z,94.17
2019-02-27T21:11:15.594Z,91.82
2019-02-27T21:13:49.372Z,89.62
2019-02-27T21:16:16.194Z,83.17
2019-02-27T21:18:45.707Z,85.10
2019-02-27T21:21:16.986Z,91.77
2019-02-27T21:23:46.373Z,83.53
2019-02-27T21:26:15.956Z,89.45
2019-02-27T21:28:45.608Z,87.82
2019-02-27T21:31:15.234Z,82.10
2019-02-27T21:33:45.728Z,90.12
2019-02-27T21:36:16.066Z,90.47
2019-02-27T21:38:50.310Z,100.10
2019-02-27T21:41:19.464Z,102.30
2019-02-27T21:43:49.069Z,89.85
2019-02-27T21:46:18.736Z,99.50
2019-02-27T21:48:51.283Z,78.00
2019-02-27T21:51:20.828Z,93.10
2019-02-27T21:53:51.589Z,93.67
2019-02-27T21:56:21.185Z,84.28
2019-02-27T21:58:50.811Z,92.50
2019-02-27T22:01:22.601Z,97.75
2019-02-27T22:03:52.273Z,105.45
2019-02-27T22:06:24.623Z,98.17
2019-02-27T22:08:54.290Z,92.15
2019-02-27T22:11:24.273Z,99.37
2019-02-27T22:13:55.247Z,103.00
2019-02-27T22:16:29.494Z,93.35
2019-02-27T22:18:56.330Z,100.67
2019-02-27T22:21:25.955Z,92.15
2019-02-27T22:23:57.266Z,95.57
2019-02-27T22:26:26.862Z,98.50
2019-02-27T22:28:56.509Z,98.85
2019-02-27T22:31:26.138Z,103.75
2019-02-27T22:33:56.201Z,103.72
2019-02-27T22:36:26.474Z,99.22
2019-02-27T22:38:59.884Z,104.97
2019-02-27T22:41:27.118Z,97.60
2019-02-27T22:43:56.608Z,96.75
2019-02-27T22:46:25.963Z,104.87
2019-02-27T22:48:55.331Z,103.80
2019-02-27T22:51:24.770Z,98.92
2019-02-27T22:53:54.139Z,104.30
2019-02-27T22:56:23.516Z,111.08
2019-02-27T22:58:52.880Z,100.97
2019-02-27T23:01:25.919Z,101.82
2019-02-27T23:03:57.913Z,92.92
2019-02-27T23:06:28.078Z,100.65
2019-02-27T23:08:57.448Z,100.02
2019-02-27T23:11:26.882Z,105.05
2019-02-27T23:13:56.249Z,109.75
2019-02-27T23:16:25.681Z,103.47
2019-02-27T23:18:55.122Z,98.60
2019-02-27T23:21:30.496Z,98.00
2019-02-27T23:23:59.973Z,96.85
2019-02-27T23:26:29.466Z,105.00
2019-02-27T23:28:58.816Z,93.60
2019-02-27T23:31:28.188Z,103.22
2019-02-27T23:33:57.636Z,103.05
2019-02-27T23:36:27.013Z,99.42
2019-02-27T23:38:56.416Z,109.57
2019-02-27T23:41:25.815Z,106.58
2019-02-27T23:43:55.292Z,108.92
2019-02-27T23:46:24.672Z,108.92
2019-02-27T23:48:54.033Z,106.30
2019-02-27T23:51:23.425Z,113.70
2019-02-27T23:53:52.935Z,116.85
2019-02-27T23:56:22.293Z,114.72
2019-02-27T23:58:54.809Z,114.20
